Time;durP1;ratioP1;P1;durP2;ratioP2;P2;SDS_P1;SDS_P2;PMS_P1;PMS_P2;Temp;Humidity;BMP_temperature;BMP_pressure;BME280_temperature;BME280_humidity;BME280_pressure;Samples;Min_cycle;Max_cycle;Signal;HPM_P1;HPM_P2
2023/10/24 00:00:57;;;;;;;4.07;3.78;;;;;;;10.96;100.00;100278.19;5091414;28;20099;-80
2023/10/24 00:03:24;;;;;;;4.70;4.38;;;;;;;10.96;100.00;100283.50;5092356;28;20112;-79
2023/10/24 00:05:52;;;;;;;5.32;4.78;;;;;;;10.95;100.00;100274.78;5092608;28;20454;-79
2023/10/24 00:08:18;;;;;;;5.68;5.18;;;;;;;10.95;100.00;100272.13;5092579;28;20051;-79
2023/10/24 00:10:45;;;;;;;5.50;4.40;;;;;;;10.95;100.00;100264.13;5091940;28;20490;-79
2023/10/24 00:13:12;;;;;;;5.35;4.95;;;;;;;10.95;100.00;100266.78;5091969;28;20067;-78
2023/10/24 00:15:39;;;;;;;5.03;4.63;;;;;;;10.96;100.00;100267.53;5092150;28;20048;-79
2023/10/24 00:18:05;;;;;;;5.32;4.93;;;;;;;10.97;100.00;100272.41;5092065;28;20476;-78
2023/10/24 00:20:32;;;;;;;6.32;4.97;;;;;;;11.00;100.00;100268.09;5091839;28;20119;-78
2023/10/24 00:22:59;;;;;;;5.93;5.50;;;;;;;11.00;100.00;100266.19;5091909;28;20048;-79
2023/10/24 00:25:25;;;;;;;6.13;5.63;;;;;;;11.01;100.00;100266.91;5090491;28;20395;-78
2023/10/24 00:27:52;;;;;;;6.95;6.35;;;;;;;11.00;100.00;100260.84;5093219;28;20102;-79
2023/10/24 00:30:18;;;;;;;6.38;5.88;;;;;;;11.01;100.00;100256.25;5091575;28;20052;-79
2023/10/24 00:32:49;;;;;;;6.15;5.65;;;;;;;11.02;100.00;100255.06;5093173;28;20098;-79
2023/10/24 00:35:17;;;;;;;7.00;6.22;;;;;;;11.03;100.00;100254.63;5091268;28;20049;-78
2023/10/24 00:37:44;;;;;;;6.35;5.85;;;;;;;11.03;100.00;100254.63;5092132;28;20052;-79
2023/10/24 00:40:11;;;;;;;7.47;6.75;;;;;;;11.03;100.00;100257.28;5090607;28;20194;-78
2023/10/24 00:42:37;;;;;;;7.55;6.88;;;;;;;11.03;100.00;100246.63;5090643;28;20473;-78
2023/10/24 00:45:06;;;;;;;8.07;7.47;;;;;;;11.02;100.00;100253.13;5090419;28;20456;-79
2023/10/24 00:47:33;;;;;;;9.88;7.40;;;;;;;11.02;100.00;100242.50;5090266;28;20056;-79
2023/10/24 00:49:59;;;;;;;7.53;6.88;;;;;;;11.03;100.00;100243.22;5091950;28;20048;-79
2023/10/24 00:52:26;;;;;;;8.15;7.55;;;;;;;11.04;100.00;100244.69;5090213;28;20040;-79
2023/10/24 00:54:53;;;;;;;8.93;8.07;;;;;;;11.05;100.00;100240.84;5091958;28;20446;-79
2023/10/24 00:57:20;;;;;;;8.77;7.93;;;;;;;11.07;100.00;100245.72;5091126;28;20052;-79
2023/10/24 00:59:47;;;;;;;8.73;7.90;;;;;;;11.07;100.00;100243.06;5095937;28;20083;-79
2023/10/24 01:02:14;;;;;;;9.38;8.52;;;;;;;11.06;100.00;100238.91;5095530;28;20051;-79
2023/10/24 01:04:43;;;;;;;9.32;8.32;;;;;;;11.07;100.00;100240.41;5093702;28;20050;-79
2023/10/24 01:07:09;;;;;;;8.77;8.13;;;;;;;11.07;100.00;100237.72;5095056;28;20079;-79
2023/10/24 01:09:36;;;;;;;10.32;9.32;;;;;;;11.06;100.00;100229.00;5094969;28;20501;-78
2023/10/24 01:12:03;;;;;;;9.48;8.63;;;;;;;11.06;100.00;100231.66;5093544;28;20056;-79
2023/10/24 01:14:30;;;;;;;11.35;9.52;;;;;;;11.06;100.00;100225.59;5094993;28;20505;-79
2023/10/24 01:16:56;;;;;;;10.50;9.45;;;;;;;11.08;100.00;100228.53;5095324;28;20048;-79
2023/10/24 01:19:23;;;;;;;10.10;9.10;;;;;;;11.09;100.00;100230.75;5093652;28;20112;-79
2023/10/24 01:21:50;;;;;;;10.88;9.85;;;;;;;11.08;100.00;100229.28;5094339;28;20088;-79
2023/10/24 01:24:17;;;;;;;10.40;9.35;;;;;;;11.08;100.00;100228.53;5094831;28;20041;-78
2023/10/24 01:26:44;;;;;;;10.80;9.63;;;;;;;11.09;100.00;100230.03;5093647;28;20052;-78
2023/10/24 01:29:11;;;;;;;10.95;9.80;;;;;;;11.09;100.00;100219.38;5093237;28;20099;-78
2023/10/24 01:31:39;;;;;;;10.80;9.65;;;;;;;11.11;100.00;100219.66;5094665;28;20044;-78
2023/10/24 01:34:05;;;;;;;10.70;9.63;;;;;;;11.12;100.00;100221.13;5093063;28;20083;-78
2023/10/24 01:36:32;;;;;;;13.23;9.50;;;;;;;11.12;100.00;100223.78;5092839;28;20060;-78
2023/10/24 01:38:58;;;;;;;14.07;9.82;;;;;;;11.13;100.00;100220.66;5093156;28;20072;-78
2023/10/24 01:41:25;;;;;;;10.65;9.63;;;;;;;11.14;100.00;100218.75;5094506;28;20045;-78
2023/10/24 01:43:53;;;;;;;13.32;10.93;;;;;;;11.15;100.00;100220.22;5093095;28;20044;-79
2023/10/24 01:46:20;;;;;;;11.30;10.05;;;;;;;11.16;100.00;100219.75;5093014;28;20045;-78
2023/10/24 01:48:46;;;;;;;11.25;10.10;;;;;;;11.16;100.00;100217.09;5094739;28;20051;-79
2023/10/24 01:51:13;;;;;;;10.88;9.95;;;;;;;11.16;100.00;100214.44;5093811;28;20045;-79
2023/10/24 01:53:40;;;;;;;11.77;10.15;;;;;;;11.15;100.00;100212.22;5094141;28;20047;-79
2023/10/24 01:56:06;;;;;;;11.93;9.90;;;;;;;11.17;100.00;100217.84;5092607;28;20334;-79
2023/10/24 01:58:33;;;;;;;11.80;9.68;;;;;;;11.16;100.00;100211.78;5092841;28;20098;-79
2023/10/24 02:00:59;;;;;;;11.13;10.02;;;;;;;11.17;100.00;100212.50;5092600;28;20477;-79
2023/10/24 02:03:26;;;;;;;15.32;10.45;;;;;;;11.16;100.00;100208.38;5092296;28;20729;-78
2023/10/24 02:05:53;;;;;;;11.10;9.35;;;;;;;11.15;100.00;100204.22;5093613;28;20040;-79
2023/10/24 02:08:20;;;;;;;10.82;9.60;;;;;;;11.14;100.00;100208.81;5094040;28;20079;-78
2023/10/24 02:10:47;;;;;;;10.70;9.60;;;;;;;11.13;100.00;100204.69;5091778;28;20056;-78
2023/10/24 02:13:13;;;;;;;11.10;8.85;;;;;;;11.14;100.00;100203.50;5092464;28;20049;-78
2023/10/24 02:15:40;;;;;;;13.85;9.63;;;;;;;11.15;100.00;100210.28;5092341;28;20072;-78
2023/10/24 02:18:06;;;;;;;13.50;9.48;;;;;;;11.14;100.00;100206.16;5093999;28;20461;-78
2023/10/24 02:20:33;;;;;;;14.35;9.18;;;;;;;11.15;100.00;100199.63;5093435;28;20049;-78
2023/10/24 02:23:00;;;;;;;13.32;8.93;;;;;;;11.16;100.00;100200.38;5093751;28;20049;-79
2023/10/24 02:25:26;;;;;;;11.50;9.15;;;;;;;11.15;100.00;100198.91;5092342;28;20541;-78
2023/10/24 02:27:53;;;;;;;9.60;8.65;;;;;;;11.14;100.00;100200.09;5093860;28;20486;-78
2023/10/24 02:30:21;;;;;;;14.38;8.80;;;;;;;11.14;100.00;100195.50;5093711;28;20090;-79
2023/10/24 02:32:49;;;;;;;9.15;8.35;;;;;;;11.14;100.00;100189.44;5092397;28;20079;-79
2023/10/24 02:35:16;;;;;;;8.57;7.72;;;;;;;11.14;100.00;100192.09;5093059;28;20142;-79
2023/10/24 02:37:42;;;;;;;8.13;7.38;;;;;;;11.11;100.00;100185.75;5092135;28;20048;-80
2023/10/24 02:40:10;;;;;;;11.70;7.63;;;;;;;11.10;100.00;100189.63;5091969;28;20088;-79
2023/10/24 02:42:36;;;;;;;8.60;7.70;;;;;;;11.10;100.00;100189.63;5091895;28;20044;-79
2023/10/24 02:45:03;;;;;;;8.05;7.25;;;;;;;11.11;100.00;100190.34;5093692;28;20098;-79
2023/10/24 02:47:30;;;;;;;14.45;7.70;;;;;;;11.11;100.00;100190.34;5093361;28;20079;-79
2023/10/24 02:49:59;;;;;;;7.35;6.65;;;;;;;11.10;100.00;100192.28;5091243;28;20052;-79
2023/10/24 02:52:28;;;;;;;7.63;6.80;;;;;;;11.10;100.00;100191.53;5091803;28;20063;-79
2023/10/24 02:54:56;;;;;;;7.93;7.15;;;;;;;11.10;100.00;100191.53;5092680;28;20051;-79
2023/10/24 02:57:22;;;;;;;7.70;6.90;;;;;;;11.08;100.00;100186.66;5091898;28;20136;-80
2023/10/24 02:59:50;;;;;;;7.70;6.57;;;;;;;11.06;100.00;100188.31;5091864;28;20041;-79
2023/10/24 03:02:17;;;;;;;7.22;6.53;;;;;;;11.05;100.00;100194.81;5093553;28;20040;-78
2023/10/24 03:04:43;;;;;;;8.43;6.65;;;;;;;11.05;100.00;100200.16;5092594;28;20497;-79
2023/10/24 03:07:12;;;;;;;10.70;6.55;;;;;;;11.03;100.00;100198.69;5093070;28;20044;-79
2023/10/24 03:09:39;;;;;;;6.82;6.22;;;;;;;11.05;100.00;100208.88;5091540;28;20056;-79
2023/10/24 03:12:09;;;;;;;8.48;6.03;;;;;;;11.04;100.00;100207.41;5093047;28;20226;-79
2023/10/24 03:14:36;;;;;;;7.28;5.72;;;;;;;11.02;100.00;100204.47;5092616;28;21203;-79
2023/10/24 03:17:03;;;;;;;7.38;6.05;;;;;;;10.98;100.00;100209.97;5092854;28;20041;-80
2023/10/24 03:19:32;;;;;;;6.35;5.55;;;;;;;10.95;100.00;100205.53;5091602;28;20051;-79
2023/10/24 03:21:59;;;;;;;11.65;6.25;;;;;;;10.95;100.00;100216.19;5092304;28;20539;-79
2023/10/24 03:24:29;;;;;;;6.28;5.75;;;;;;;10.94;100.00;100224.63;5091567;28;20044;-79
2023/10/24 03:26:55;;;;;;;6.68;6.10;;;;;;;10.93;100.00;100215.16;5092527;28;20072;-79
2023/10/24 03:29:22;;;;;;;6.05;5.40;;;;;;;10.90;100.00;100218.75;5093074;28;20043;-79
2023/10/24 03:31:49;;;;;;;6.10;5.50;;;;;;;10.87;100.00;100222.31;5092519;28;20049;-79
2023/10/24 03:34:15;;;;;;;6.40;5.80;;;;;;;10.87;100.00;100220.38;5091252;28;20139;-80
2023/10/24 03:36:42;;;;;;;6.30;5.68;;;;;;;10.85;100.00;100220.09;5091434;28;20060;-80
2023/10/24 03:39:09;;;;;;;6.30;5.80;;;;;;;10.82;100.00;100215.66;5091052;28;20514;-79
2023/10/24 03:41:36;;;;;;;7.85;5.30;;;;;;;10.81;100.00;100216.84;5074008;28;20055;-79
2023/10/24 03:44:03;;;;;;;6.28;5.78;;;;;;;10.79;100.00;100211.28;5092784;28;20124;-80
2023/10/24 03:46:29;;;;;;;6.07;5.47;;;;;;;10.78;100.00;100222.38;5090803;28;20045;-80
2023/10/24 03:48:57;;;;;;;5.88;5.05;;;;;;;10.74;100.00;100211.16;5091164;28;20048;-80
2023/10/24 03:51:24;;;;;;;5.25;4.82;;;;;;;10.71;100.00;100215.47;5090997;28;20073;-80
2023/10/24 03:53:51;;;;;;;6.00;5.50;;;;;;;10.67;100.00;100215.63;5091370;28;20064;-81
2023/10/24 03:56:18;;;;;;;8.45;4.60;;;;;;;10.66;100.00;100213.41;5092502;28;20049;-80
2023/10/24 03:58:44;;;;;;;6.00;5.38;;;;;;;10.66;100.00;100210.75;5092344;28;20532;-81
2023/10/24 04:01:11;;;;;;;5.03;4.63;;;;;;;10.61;100.00;100208.72;5091816;28;20045;-80
2023/10/24 04:03:38;;;;;;;5.60;5.05;;;;;;;10.59;100.00;100222.47;5090932;28;20056;-81
2023/10/24 04:06:11;;;;;;;5.93;5.38;;;;;;;10.56;100.00;100215.38;5092276;28;20079;-81
2023/10/24 04:08:39;;;;;;;6.50;5.60;;;;;;;10.54;100.00;100220.41;5092288;28;20126;-80
2023/10/24 04:11:15;;;;;;;7.10;5.65;;;;;;;10.54;100.00;100217.75;5090845;28;20049;-80
2023/10/24 04:13:43;;;;;;;5.95;5.35;;;;;;;10.55;100.00;100221.16;5091318;28;20106;-80
2023/10/24 04:16:10;;;;;;;6.22;5.40;;;;;;;10.53;100.00;100224.25;5091572;28;20484;-80
2023/10/24 04:18:38;;;;;;;7.22;6.07;;;;;;;10.51;100.00;100221.31;5092204;28;20242;-82
2023/10/24 04:21:05;;;;;;;6.35;5.85;;;;;;;10.50;100.00;100222.50;5091943;28;20044;-80
2023/10/24 04:23:32;;;;;;;6.20;5.60;;;;;;;10.49;100.00;100220.28;5092082;28;20055;-80
2023/10/24 04:25:58;;;;;;;7.85;6.30;;;;;;;10.47;100.00;100218.09;5092033;28;20146;-80
2023/10/24 04:28:25;;;;;;;7.18;6.20;;;;;;;10.49;100.00;100212.31;5090661;28;20041;-80
2023/10/24 04:30:52;;;;;;;7.10;6.43;;;;;;;10.47;100.00;100220.00;5090044;28;20052;-81
2023/10/24 04:33:19;;;;;;;7.30;6.53;;;;;;;10.45;100.00;100217.78;5092685;28;20049;-80
2023/10/24 04:35:47;;;;;;;8.20;7.13;;;;;;;10.44;100.00;100218.25;5095559;28;20123;-80
2023/10/24 04:38:14;;;;;;;7.90;7.10;;;;;;;10.43;100.00;100214.84;5095403;28;20481;-79
2023/10/24 04:40:40;;;;;;;8.13;7.07;;;;;;;10.43;100.00;100211.44;5095402;28;20049;-79
2023/10/24 04:43:08;;;;;;;9.75;6.90;;;;;;;10.41;100.00;100200.50;5095681;28;20538;-80
2023/10/24 04:45:37;;;;;;;9.00;7.10;;;;;;;10.38;100.00;100202.19;5094917;28;20480;-80
2023/10/24 04:48:04;;;;;;;7.82;6.93;;;;;;;10.39;100.00;100205.56;5095296;28;20044;-80
2023/10/24 04:50:36;;;;;;;7.63;6.80;;;;;;;10.37;100.00;100197.31;5093768;28;20088;-81
2023/10/24 04:53:03;;;;;;;8.77;7.88;;;;;;;10.37;100.00;100190.06;5095491;28;20072;-80
2023/10/24 04:55:30;;;;;;;9.90;7.20;;;;;;;10.38;100.00;100193.47;5093265;28;20054;-81
2023/10/24 04:57:56;;;;;;;10.25;6.57;;;;;;;10.35;100.00;100190.50;5095001;28;20090;-80
2023/10/24 05:00:24;;;;;;;7.20;6.53;;;;;;;10.34;100.00;100186.38;5094811;28;20478;-80
2023/10/24 05:02:51;;;;;;;9.32;6.82;;;;;;;10.36;100.00;100191.25;5094995;28;20864;-79
2023/10/24 05:05:18;;;;;;;7.13;6.40;;;;;;;10.37;100.00;100184.00;5094053;28;20083;-79
2023/10/24 05:07:45;;;;;;;9.15;6.90;;;;;;;10.34;100.00;100183.72;5095352;28;20056;-79
2023/10/24 05:10:12;;;;;;;7.18;6.47;;;;;;;10.33;100.00;100184.91;5076694;28;20099;-80
2023/10/24 05:12:38;;;;;;;9.77;6.70;;;;;;;10.30;100.00;100185.06;5094874;28;20053;-80
2023/10/24 05:15:05;;;;;;;8.10;6.45;;;;;;;10.28;100.00;100177.53;5076067;28;20151;-79
2023/10/24 05:17:32;;;;;;;8.27;6.78;;;;;;;10.30;100.00;100177.09;5093508;28;20040;-79
2023/10/24 05:20:02;;;;;;;6.97;6.38;;;;;;;10.30;100.00;100180.47;5093290;28;20106;-79
2023/10/24 05:22:30;;;;;;;8.90;7.72;;;;;;;10.30;100.00;100174.41;5093380;28;20048;-79
2023/10/24 05:24:56;;;;;;;8.30;7.20;;;;;;;10.30;100.00;100163.78;5093416;28;20048;-79
2023/10/24 05:27:23;;;;;;;8.02;7.22;;;;;;;10.30;100.00;100161.13;5092764;28;20132;-80
2023/10/24 05:29:50;;;;;;;8.38;7.63;;;;;;;10.31;100.00;100165.25;5093095;28;20571;-80
2023/10/24 05:32:16;;;;;;;8.43;7.63;;;;;;;10.29;100.00;100160.38;5094547;28;20052;-79
2023/10/24 05:34:43;;;;;;;8.15;7.35;;;;;;;10.30;100.00;100159.19;5094748;28;20045;-79
2023/10/24 05:37:09;;;;;;;7.93;7.20;;;;;;;10.28;100.00;100161.56;5092947;28;20051;-80
2023/10/24 05:39:36;;;;;;;8.70;7.80;;;;;;;10.29;100.00;100165.69;5094491;28;20048;-80
2023/10/24 05:42:03;;;;;;;8.65;7.70;;;;;;;10.28;100.00;100171.47;5094224;28;20063;-81
2023/10/24 05:44:29;;;;;;;8.57;7.78;;;;;;;10.27;100.00;100168.06;5094135;28;20120;-81
2023/10/24 05:46:56;;;;;;;8.48;7.68;;;;;;;10.27;100.00;100173.41;5094433;28;20067;-79
2023/10/24 05:49:23;;;;;;;9.57;8.32;;;;;;;10.27;100.00;100178.72;5094445;28;20044;-79
2023/10/24 05:51:49;;;;;;;9.25;8.35;;;;;;;10.29;100.00;100178.25;5094422;28;20092;-79
2023/10/24 05:54:16;;;;;;;9.35;8.35;;;;;;;10.30;100.00;100174.41;5094509;28;20042;-80
2023/10/24 05:56:42;;;;;;;10.85;8.23;;;;;;;10.28;100.00;100179.47;5092073;28;20610;-79
2023/10/24 05:59:10;;;;;;;13.00;8.07;;;;;;;10.26;100.00;100173.84;5094078;28;20045;-80
2023/10/24 06:01:36;;;;;;;11.32;8.63;;;;;;;10.25;100.00;100181.09;5092626;28;20877;-80
2023/10/24 06:04:03;;;;;;;8.70;7.90;;;;;;;10.27;100.00;100181.38;5094273;28;20045;-81
2023/10/24 06:06:30;;;;;;;9.15;8.25;;;;;;;10.25;100.00;100177.69;5092698;28;20060;-79
2023/10/24 06:08:56;;;;;;;8.48;7.07;;;;;;;10.25;100.00;100181.09;5092216;28;20049;-80
2023/10/24 06:11:23;;;;;;;8.43;7.50;;;;;;;10.25;100.00;100173.09;5091937;28;20060;-79
2023/10/24 06:13:49;;;;;;;8.75;7.85;;;;;;;10.25;100.00;100177.69;5094060;28;20055;-79
2023/10/24 06:16:19;;;;;;;8.38;7.30;;;;;;;10.22;100.00;100181.25;5092224;28;20088;-78
2023/10/24 06:18:49;;;;;;;10.32;7.90;;;;;;;10.21;100.00;100180.50;5094419;28;20095;-78
2023/10/24 06:21:16;;;;;;;9.13;7.75;;;;;;;10.20;100.00;100195.00;5093749;28;20044;-78
2023/10/24 06:23:43;;;;;;;9.27;7.13;;;;;;;10.18;100.00;100184.03;5093700;28;20231;-76
2023/10/24 06:26:13;;;;;;;7.93;7.13;;;;;;;10.18;100.00;100178.72;5093198;28;20043;-77
2023/10/24 06:28:41;;;;;;;7.85;7.10;;;;;;;10.18;100.00;100177.97;5093261;28;20631;-77
2023/10/24 06:31:08;;;;;;;8.13;7.32;;;;;;;10.17;100.00;100174.59;5093491;28;20059;-79
2023/10/24 06:33:34;;;;;;;8.27;7.45;;;;;;;10.17;100.00;100171.94;5092088;28;20055;-78
2023/10/24 06:36:04;;;;;;;8.88;7.32;;;;;;;10.17;100.00;100171.19;5093371;28;20036;-78
2023/10/24 06:38:31;;;;;;;7.75;6.70;;;;;;;10.18;100.00;100185.97;5092914;28;20426;-78
2023/10/24 06:40:58;;;;;;;9.32;7.43;;;;;;;10.16;100.00;100186.41;5093006;28;20056;-78
2023/10/24 06:43:26;;;;;;;7.18;6.57;;;;;;;10.16;100.00;100194.38;5093370;28;20072;-79
2023/10/24 06:45:53;;;;;;;7.50;6.82;;;;;;;10.16;100.00;100197.06;5093320;28;20051;-78
2023/10/24 06:48:20;;;;;;;7.90;7.10;;;;;;;10.15;100.00;100195.56;5091842;28;20055;-79
2023/10/24 06:50:47;;;;;;;8.27;6.90;;;;;;;10.15;100.00;100210.78;5093591;28;20077;-79
2023/10/24 06:53:14;;;;;;;7.57;6.82;;;;;;;10.16;100.00;100215.66;5092046;28;20037;-79
2023/10/24 06:55:41;;;;;;;7.93;6.88;;;;;;;10.16;100.00;100220.25;5090246;28;20052;-79
2023/10/24 06:58:08;;;;;;;7.15;6.55;;;;;;;10.14;100.00;100215.38;5093385;28;20098;-79
2023/10/24 07:00:34;;;;;;;7.95;7.15;;;;;;;10.14;100.00;100220.69;5093189;28;20044;-79
2023/10/24 07:03:01;;;;;;;9.13;7.07;;;;;;;10.14;100.00;100211.97;5093192;28;20075;-79
2023/10/24 07:05:28;;;;;;;7.72;7.03;;;;;;;10.13;100.00;100215.81;5092726;28;20115;-79
2023/10/24 07:07:55;;;;;;;7.78;7.03;;;;;;;10.17;100.00;100213.75;5091548;28;20041;-79
2023/10/24 07:10:21;;;;;;;7.60;6.90;;;;;;;10.18;100.00;100209.91;5091493;28;20040;-79
2023/10/24 07:12:48;;;;;;;7.25;6.60;;;;;;;10.18;100.00;100207.25;5093227;28;20489;-80
2023/10/24 07:15:15;;;;;;;9.15;8.18;;;;;;;10.20;100.00;100200.31;5091760;28;20054;-78
2023/10/24 07:17:42;;;;;;;8.48;7.65;;;;;;;10.20;100.00;100200.31;5093197;28;20076;-79
2023/10/24 07:20:10;;;;;;;8.07;7.30;;;;;;;10.21;100.00;100207.13;5090968;28;20159;-79
2023/10/24 07:22:37;;;;;;;7.65;6.95;;;;;;;10.19;100.00;100204.16;5092821;28;20574;-80
2023/10/24 07:25:04;;;;;;;8.35;7.65;;;;;;;10.20;100.00;100197.66;5092371;28;20048;-80
2023/10/24 07:27:30;;;;;;;7.97;7.25;;;;;;;10.20;100.00;100199.59;5092169;28;20041;-79
2023/10/24 07:29:57;;;;;;;7.95;7.15;;;;;;;10.17;100.00;100200.44;5091447;28;20092;-80
2023/10/24 07:32:23;;;;;;;8.95;7.30;;;;;;;10.18;100.00;100213.31;5091092;28;20056;-84
2023/10/24 07:34:55;;;;;;;8.75;7.90;;;;;;;10.21;100.00;100214.34;5091015;28;20053;-82
2023/10/24 07:37:23;;;;;;;8.05;7.25;;;;;;;10.21;100.00;100214.34;5092784;28;20127;-87
2023/10/24 07:39:50;;;;;;;9.75;8.25;;;;;;;10.21;100.00;100209.78;5092311;28;20068;-85
2023/10/24 07:42:17;;;;;;;8.20;7.40;;;;;;;10.22;100.00;100210.50;5091012;28;20064;-84
2023/10/24 07:44:43;;;;;;;7.88;7.07;;;;;;;10.26;100.00;100198.53;5092516;28;20048;-83
2023/10/24 07:47:10;;;;;;;10.05;7.93;;;;;;;10.29;100.00;100186.25;5092462;28;20049;-83
2023/10/24 07:49:37;;;;;;;9.85;8.05;;;;;;;10.31;100.00;100186.53;5092284;28;20045;-83
2023/10/24 07:52:04;;;;;;;10.20;8.38;;;;;;;10.35;100.00;100181.78;5092521;28;20115;-89
2023/10/24 07:54:31;;;;;;;10.95;8.70;;;;;;;10.39;100.00;100187.69;5091865;28;20124;-81
2023/10/24 07:56:57;;;;;;;9.32;8.40;;;;;;;10.42;100.00;100184.09;5092185;28;20099;-81
2023/10/24 07:59:26;;;;;;;10.00;8.98;;;;;;;10.46;100.00;100189.25;5091054;28;20510;-81
2023/10/24 08:01:53;;;;;;;10.18;9.10;;;;;;;10.47;100.00;100188.81;5090922;28;20131;-80
2023/10/24 08:04:19;;;;;;;11.63;8.75;;;;;;;10.47;100.00;100177.44;5092443;28;20075;-77
2023/10/24 08:06:46;;;;;;;12.43;9.65;;;;;;;10.53;100.00;100178.28;5090982;28;20048;-78
2023/10/24 08:09:13;;;;;;;11.25;9.38;;;;;;;10.57;100.00;100178.84;5094837;28;20043;-79
2023/10/24 08:11:40;;;;;;;13.65;9.75;;;;;;;10.60;100.00;100175.28;5077436;28;20055;-81
2023/10/24 08:14:06;;;;;;;11.65;9.52;;;;;;;10.60;100.00;100170.72;5094159;28;20387;-79
2023/10/24 08:16:33;;;;;;;13.23;9.55;;;;;;;10.66;100.00;100162.84;5094225;28;20052;-81
2023/10/24 08:19:00;;;;;;;11.18;9.90;;;;;;;10.70;100.00;100160.75;5094435;28;20041;-80
2023/10/24 08:21:26;;;;;;;10.32;9.23;;;;;;;10.73;100.00;100159.84;5095186;28;20048;-80
2023/10/24 08:23:54;;;;;;;12.32;9.95;;;;;;;10.76;100.00;100158.94;5094514;28;20036;-80
2023/10/24 08:26:21;;;;;;;10.30;9.27;;;;;;;10.81;100.00;100165.53;5095368;28;20051;-81
2023/10/24 08:28:48;;;;;;;12.93;9.93;;;;;;;10.82;100.00;100167.75;5094196;28;20148;-80
2023/10/24 08:31:14;;;;;;;15.00;9.98;;;;;;;10.82;100.00;100159.03;5094281;28;20049;-80
2023/10/24 08:33:43;;;;;;;10.60;9.40;;;;;;;10.87;100.00;100166.38;5095548;28;20044;-80
2023/10/24 08:36:10;;;;;;;10.30;9.30;;;;;;;10.92;100.00;100171.09;5095013;28;20527;-78
2023/10/24 08:38:37;;;;;;;10.27;9.23;;;;;;;11.00;100.00;100169.56;5095241;28;20045;-78
2023/10/24 08:41:04;;;;;;;10.73;9.50;;;;;;;11.13;100.00;100166.66;5095201;28;20049;-79
2023/10/24 08:43:33;;;;;;;10.60;9.50;;;;;;;11.22;100.00;100177.94;5095016;28;20048;-78
2023/10/24 08:46:00;;;;;;;10.25;9.07;;;;;;;11.25;100.00;100181.63;5095292;28;20130;-78
2023/10/24 08:48:31;;;;;;;9.93;9.00;;;;;;;11.22;100.00;100187.88;5095180;28;20041;-79
2023/10/24 08:50:57;;;;;;;11.07;9.25;;;;;;;11.19;100.00;100196.81;5095124;28;20048;-79
2023/10/24 08:53:24;;;;;;;10.65;9.48;;;;;;;11.16;100.00;100195.78;5095198;28;20140;-79
2023/10/24 08:55:54;;;;;;;10.38;9.18;;;;;;;11.14;100.00;100205.41;5094840;28;20047;-78
2023/10/24 08:58:21;;;;;;;11.32;8.93;;;;;;;11.13;100.00;100203.94;5094681;28;20497;-79
2023/10/24 09:00:49;;;;;;;10.50;9.02;;;;;;;11.16;100.00;100203.78;5095445;28;20055;-78
2023/10/24 09:03:17;;;;;;;9.45;8.43;;;;;;;11.16;100.00;100206.44;5095245;28;20072;-79
2023/10/24 09:05:48;;;;;;;11.77;9.02;;;;;;;11.21;100.00;100210.38;5094813;28;20041;-79
2023/10/24 09:08:16;;;;;;;10.23;9.23;;;;;;;11.26;100.00;100209.75;5095186;28;20041;-79
2023/10/24 09:10:45;;;;;;;10.65;9.23;;;;;;;11.33;100.00;100209.41;5095210;28;20501;-79
2023/10/24 09:13:12;;;;;;;12.02;9.00;;;;;;;11.40;100.00;100210.97;5094756;28;20052;-79
2023/10/24 09:15:39;;;;;;;9.80;8.80;;;;;;;11.52;100.00;100215.31;5093626;28;20520;-78
2023/10/24 09:18:06;;;;;;;10.88;8.70;;;;;;;11.70;100.00;100226.53;5094557;28;20045;-81
2023/10/24 09:20:33;;;;;;;9.30;8.40;;;;;;;11.86;100.00;100224.66;5092740;28;20052;-79
2023/10/24 09:23:05;;;;;;;9.48;8.18;;;;;;;11.96;100.00;100218.03;5094709;28;20070;-80
2023/10/24 09:25:32;;;;;;;9.57;8.68;;;;;;;12.03;100.00;100217.63;5092801;28;20049;-77
2023/10/24 09:28:19;;;;;;;9.07;8.23;;;;;;;12.03;100.00;100210.38;5092982;28;20076;-82
2023/10/24 09:30:45;;;;;;;9.10;8.27;;;;;;;12.07;100.00;100206.78;5094728;28;20489;-80
2023/10/24 09:33:12;;;;;;;8.88;8.07;;;;;;;12.06;100.00;100200.72;5092743;28;20544;-77
2023/10/24 09:35:40;;;;;;;8.60;7.70;;;;;;;12.09;100.00;100191.78;5093677;28;20051;-77
2023/10/24 09:38:07;;;;;;;8.75;7.97;;;;;;;12.11;100.00;100192.06;5094410;28;20126;-79
2023/10/24 09:40:39;;;;;;;8.88;8.07;;;;;;;12.17;100.00;100190.22;5094442;28;20409;-79
2023/10/24 09:43:21;;;;;;;8.40;7.55;;;;;;;12.32;100.00;100187.53;5094369;28;20037;-79
2023/10/24 09:45:54;;;;;;;8.20;7.40;;;;;;;12.45;100.00;100184.53;5092966;28;20609;-78
2023/10/24 09:48:22;;;;;;;9.43;7.50;;;;;;;12.55;100.00;100183.22;5091537;28;20051;-76
2023/10/24 09:50:50;;;;;;;8.43;7.50;;;;;;;12.68;100.00;100165.66;5094368;28;20054;-80
2023/10/24 09:53:19;;;;;;;8.20;6.90;;;;;;;12.73;100.00;100169.63;5111731;28;20629;-83
2023/10/24 09:55:49;;;;;;;8.63;7.07;;;;;;;12.70;100.00;100170.53;5113703;27;20054;-82
2023/10/24 09:58:18;;;;;;;7.72;6.88;;;;;;;12.72;100.00;100168.16;5113595;28;20040;-80
2023/10/24 10:00:47;;;;;;;7.68;6.78;;;;;;;12.76;100.00;100184.69;5114575;27;20040;-80
2023/10/24 10:03:14;;;;;;;7.78;6.45;;;;;;;12.80;100.00;100179.13;5112749;28;20055;-81
2023/10/24 10:05:43;;;;;;;6.88;6.28;;;;;;;12.70;100.00;100186.56;5114446;27;20051;-81
2023/10/24 10:08:12;;;;;;;7.05;6.45;;;;;;;12.72;100.00;100175.41;5112976;28;20052;-79
2023/10/24 10:10:39;;;;;;;6.53;5.97;;;;;;;12.72;100.00;100197.53;5114366;27;20047;-77
2023/10/24 10:13:09;;;;;;;7.05;6.35;;;;;;;12.77;100.00;100193.44;5113876;27;20119;-78
2023/10/24 10:15:47;;;;;;;7.13;6.45;;;;;;;12.80;100.00;100189.81;5114041;28;20414;-78
2023/10/24 10:18:39;;;;;;;7.10;6.25;;;;;;;12.75;100.00;100185.91;5112445;28;20493;-77
2023/10/24 10:21:16;;;;;;;6.55;5.90;;;;;;;12.74;100.00;100187.09;5114051;27;20440;-78
2023/10/24 10:24:04;;;;;;;7.05;6.13;;;;;;;12.69;100.00;100193.84;5114068;27;20484;-77
2023/10/24 10:27:07;;;;;;;8.55;6.53;;;;;;;12.69;100.00;100195.78;5114184;27;20080;-77
2023/10/24 10:29:52;;;;;;;6.90;6.30;;;;;;;12.65;100.00;100187.22;5113956;27;20044;-78
2023/10/24 10:32:38;;;;;;;8.43;6.70;;;;;;;12.67;100.00;100190.16;5113587;28;20109;-77
2023/10/24 10:35:49;;;;;;;7.07;6.40;;;;;;;12.66;100.00;100196.72;5112541;28;20040;-77
2023/10/24 10:38:38;;;;;;;9.65;5.82;;;;;;;12.71;100.00;100188.03;5092655;27;20485;-76
2023/10/24 10:41:22;;;;;;;7.07;6.43;;;;;;;12.68;100.00;100181.69;5073236;28;20052;-75
2023/10/24 10:43:53;;;;;;;;;;;;;;;12.70;100.00;100181.22;5073974;28;20052;-78
2023/10/24 10:46:23;;;;;;;6.85;6.15;;;;;;;12.75;100.00;100169.88;5073276;28;19931;-77
2023/10/24 10:48:50;;;;;;;6.55;6.05;;;;;;;12.87;100.00;100178.75;5073230;28;20053;-78
2023/10/24 10:51:23;;;;;;;7.47;6.22;;;;;;;12.95;100.00;100175.19;5071744;28;20113;-78
2023/10/24 10:54:05;;;;;;;8.20;6.10;;;;;;;13.05;100.00;100175.81;5073396;28;20045;-78
2023/10/24 10:56:34;;;;;;;7.45;6.65;;;;;;;13.09;100.00;100172.94;5072561;28;20125;-78
2023/10/24 10:59:06;;;;;;;;;;;;;;;13.12;100.00;100172.00;5055182;28;20057;-78
2023/10/24 11:02:00;;;;;;;8.45;6.30;;;;;;;13.06;100.00;100171.19;5054277;28;20019;-79
2023/10/24 11:04:28;;;;;;;7.53;6.20;;;;;;;12.99;100.00;100170.41;5072929;28;20047;-80
2023/10/24 11:06:56;;;;;;;8.00;6.22;;;;;;;12.97;100.00;100167.44;5071264;28;20128;-78
2023/10/24 11:09:37;;;;;;;6.53;5.93;;;;;;;12.96;100.00;100159.91;5071413;28;20045;-78
2023/10/24 11:12:24;;;;;;;8.60;6.15;;;;;;;13.00;100.00;100160.44;5072897;28;20179;-78
2023/10/24 11:15:10;;;;;;;6.57;6.03;;;;;;;12.97;100.00;100161.38;5072695;28;20124;-78
2023/10/24 11:17:37;;;;;;;6.55;5.50;;;;;;;12.94;100.00;100170.31;5072202;28;20123;-78
2023/10/24 11:20:10;;;;;;;6.18;5.57;;;;;;;12.92;100.00;100165.44;5072844;28;20536;-80